More Magic — 2DWJ4 — position and weather

sailwx.info

Track history (hours):
 
Tides and Currents Weather Stations Pressure Air Temp Water Temp Dewpoint Dewpoint Depression Visibility Wind Speed Wind Dir Waves Ship Positions

More Magic

Last reported at 2015-Mar-07 22:32 UTC. Time now 2015-Mar-28 03:57 UTC.
Position N 18°25' W 064°32'.
Warning: this ship's position is 20 days out of date.

Length 20 m.

Type: Sailing vessel. MMSI: 235082545.

Date/timePositionNaut miles runAvg speedWind from/ knotsBaromVisibWave heightAir tempDewpointWater temp
2015-Mar-07 22:32N 18°25' W 064°32'  
2015-Mar-02 19:33N 18°23' W 064°39'2 0.1
2015-Feb-28 21:28N 18°23' W 064°42'7 1.0
2015-Feb-28 15:06N 18°23' W 064°35'1 0.1
2015-Feb-27 20:16N 18°22' W 064°34'4 3.7
2015-Feb-27 19:04N 18°25' W 064°30'4 0.1
2015-Feb-26 13:11N 18°26' W 064°27'0 0.0
2015-Feb-26 12:17N 18°26' W 064°27'0 0.0
2015-Feb-26 11:05N 18°26' W 064°27'0 0.0
2015-Feb-26 10:29N 18°26' W 064°27'0 0.0
2015-Feb-26 04:23N 18°26' W 064°27'0 0.0
2015-Feb-26 03:17N 18°26' W 064°27'0 0.0
2015-Feb-26 02:29N 18°26' W 064°27'0 0.0
2015-Feb-26 01:05N 18°26' W 064°27'0 0.0
2015-Feb-26 00:29N 18°26' W 064°27'0 0.0
2015-Feb-25 23:23N 18°26' W 064°27'  
Track history (hours):
 
Tides and Currents Weather Stations Pressure Air Temp Water Temp Dewpoint Dewpoint Depression Visibility Wind Speed Wind Dir Waves Ship Positions

More Magic

Last reported at 2015-Mar-07 22:32 UTC. Time now 2015-Mar-28 03:57 UTC.
Position N 18°25' W 064°32'.
Warning: this ship's position is 20 days out of date.

Length 20 m.

Type: Sailing vessel. MMSI: 235082545.

Date/timePositionNaut miles runAvg speedWind from/ knotsBaromVisibWave heightAir tempDewpointWater temp
2015-Mar-07 22:32N 18°25' W 064°32'  
2015-Mar-02 19:33N 18°23' W 064°39'2 0.1
2015-Feb-28 21:28N 18°23' W 064°42'7 1.0
2015-Feb-28 15:06N 18°23' W 064°35'1 0.1
2015-Feb-27 20:16N 18°22' W 064°34'4 3.7
2015-Feb-27 19:04N 18°25' W 064°30'4 0.1
2015-Feb-26 13:11N 18°26' W 064°27'0 0.0
2015-Feb-26 12:17N 18°26' W 064°27'0 0.0
2015-Feb-26 11:05N 18°26' W 064°27'0 0.0
2015-Feb-26 10:29N 18°26' W 064°27'0 0.0
2015-Feb-26 04:23N 18°26' W 064°27'0 0.0
2015-Feb-26 03:17N 18°26' W 064°27'0 0.0
2015-Feb-26 02:29N 18°26' W 064°27'0 0.0
2015-Feb-26 01:05N 18°26' W 064°27'0 0.0
2015-Feb-26 00:29N 18°26' W 064°27'0 0.0
2015-Feb-25 23:23N 18°26' W 064°27'  

Dump ship's entire track history